sensor_id;sensor_type;location;lat;lon;timestamp;temperature;humidity
68235;DHT22;55052;52.056;5.296;2023-11-25T00:00:46;6.70;87.40
68235;DHT22;55052;52.056;5.296;2023-11-25T00:03:14;6.70;87.50
68235;DHT22;55052;52.056;5.296;2023-11-25T00:05:41;6.60;87.60
68235;DHT22;55052;52.056;5.296;2023-11-25T00:08:08;6.70;87.90
68235;DHT22;55052;52.056;5.296;2023-11-25T00:10:35;6.70;88.00
68235;DHT22;55052;52.056;5.296;2023-11-25T00:13:02;6.70;88.20
68235;DHT22;55052;52.056;5.296;2023-11-25T00:15:30;6.70;88.40
68235;DHT22;55052;52.056;5.296;2023-11-25T00:17:57;6.70;88.50
68235;DHT22;55052;52.056;5.296;2023-11-25T00:20:24;6.70;88.50
68235;DHT22;55052;52.056;5.296;2023-11-25T00:22:52;6.70;88.70
68235;DHT22;55052;52.056;5.296;2023-11-25T00:25:19;6.70;88.70
68235;DHT22;55052;52.056;5.296;2023-11-25T00:27:46;6.70;88.90
68235;DHT22;55052;52.056;5.296;2023-11-25T00:30:13;6.70;88.90
68235;DHT22;55052;52.056;5.296;2023-11-25T00:32:41;6.70;88.80
68235;DHT22;55052;52.056;5.296;2023-11-25T00:35:08;6.80;88.80
68235;DHT22;55052;52.056;5.296;2023-11-25T00:37:36;6.70;88.80
68235;DHT22;55052;52.056;5.296;2023-11-25T00:40:04;6.80;88.80
68235;DHT22;55052;52.056;5.296;2023-11-25T00:42:31;6.70;88.80
68235;DHT22;55052;52.056;5.296;2023-11-25T00:44:58;6.70;89.70
68235;DHT22;55052;52.056;5.296;2023-11-25T00:47:25;6.80;88.90
68235;DHT22;55052;52.056;5.296;2023-11-25T00:49:54;6.70;88.80
68235;DHT22;55052;52.056;5.296;2023-11-25T00:52:22;6.70;88.90
68235;DHT22;55052;52.056;5.296;2023-11-25T00:54:49;6.70;89.10
68235;DHT22;55052;52.056;5.296;2023-11-25T00:57:15;6.80;90.00
68235;DHT22;55052;52.056;5.296;2023-11-25T00:59:42;6.80;89.40
68235;DHT22;55052;52.056;5.296;2023-11-25T01:02:09;6.80;89.50
68235;DHT22;55052;52.056;5.296;2023-11-25T01:04:39;6.80;89.70
68235;DHT22;55052;52.056;5.296;2023-11-25T01:07:07;6.80;89.80
68235;DHT22;55052;52.056;5.296;2023-11-25T01:09:34;6.80;90.00
68235;DHT22;55052;52.056;5.296;2023-11-25T01:12:01;6.80;90.00
68235;DHT22;55052;52.056;5.296;2023-11-25T01:14:27;6.80;90.00
68235;DHT22;55052;52.056;5.296;2023-11-25T01:16:54;6.80;90.00
68235;DHT22;55052;52.056;5.296;2023-11-25T01:19:21;6.80;90.10
68235;DHT22;55052;52.056;5.296;2023-11-25T01:21:49;6.80;90.10
68235;DHT22;55052;52.056;5.296;2023-11-25T01:24:16;6.80;90.10
68235;DHT22;55052;52.056;5.296;2023-11-25T01:26:43;6.80;90.10
68235;DHT22;55052;52.056;5.296;2023-11-25T01:29:10;6.80;90.10
68235;DHT22;55052;52.056;5.296;2023-11-25T01:31:37;6.80;90.20
68235;DHT22;55052;52.056;5.296;2023-11-25T01:34:04;6.70;90.20
68235;DHT22;55052;52.056;5.296;2023-11-25T01:36:33;6.70;90.20
68235;DHT22;55052;52.056;5.296;2023-11-25T01:38:59;6.70;90.30
68235;DHT22;55052;52.056;5.296;2023-11-25T01:41:26;6.70;90.30
68235;DHT22;55052;52.056;5.296;2023-11-25T01:43:53;6.70;90.30
68235;DHT22;55052;52.056;5.296;2023-11-25T01:46:32;6.70;90.30
68235;DHT22;55052;52.056;5.296;2023-11-25T01:49:00;6.70;90.30
68235;DHT22;55052;52.056;5.296;2023-11-25T01:51:27;6.60;90.20
68235;DHT22;55052;52.056;5.296;2023-11-25T01:53:54;6.60;90.30
68235;DHT22;55052;52.056;5.296;2023-11-25T01:56:21;6.60;90.30
68235;DHT22;55052;52.056;5.296;2023-11-25T01:58:48;6.50;90.30
68235;DHT22;55052;52.056;5.296;2023-11-25T02:01:16;6.50;90.30
68235;DHT22;55052;52.056;5.296;2023-11-25T02:03:43;6.50;90.30
68235;DHT22;55052;52.056;5.296;2023-11-25T02:06:09;6.40;90.40
68235;DHT22;55052;52.056;5.296;2023-11-25T02:08:36;6.40;90.40
68235;DHT22;55052;52.056;5.296;2023-11-25T02:11:03;6.40;90.90
68235;DHT22;55052;52.056;5.296;2023-11-25T02:13:30;6.40;90.50
68235;DHT22;55052;52.056;5.296;2023-11-25T02:15:57;6.40;90.50
68235;DHT22;55052;52.056;5.296;2023-11-25T02:18:24;6.40;90.50
68235;DHT22;55052;52.056;5.296;2023-11-25T02:20:51;6.40;90.50
68235;DHT22;55052;52.056;5.296;2023-11-25T02:23:21;6.30;90.50
68235;DHT22;55052;52.056;5.296;2023-11-25T02:25:51;6.30;90.50
68235;DHT22;55052;52.056;5.296;2023-11-25T02:28:20;6.30;90.50
68235;DHT22;55052;52.056;5.296;2023-11-25T02:30:47;6.30;90.50
68235;DHT22;55052;52.056;5.296;2023-11-25T02:33:14;6.20;90.50
68235;DHT22;55052;52.056;5.296;2023-11-25T02:35:43;6.20;90.80
68235;DHT22;55052;52.056;5.296;2023-11-25T02:38:10;6.20;90.50
68235;DHT22;55052;52.056;5.296;2023-11-25T02:40:43;6.20;90.50
68235;DHT22;55052;52.056;5.296;2023-11-25T02:43:13;6.20;90.40
68235;DHT22;55052;52.056;5.296;2023-11-25T02:45:41;6.10;90.50
68235;DHT22;55052;52.056;5.296;2023-11-25T02:48:09;6.10;90.50
68235;DHT22;55052;52.056;5.296;2023-11-25T02:50:36;6.00;90.50
68235;DHT22;55052;52.056;5.296;2023-11-25T02:53:03;6.10;90.60
68235;DHT22;55052;52.056;5.296;2023-11-25T02:55:31;6.10;90.60
68235;DHT22;55052;52.056;5.296;2023-11-25T02:57:58;6.10;90.60
68235;DHT22;55052;52.056;5.296;2023-11-25T03:00:25;6.10;90.60
68235;DHT22;55052;52.056;5.296;2023-11-25T03:03:00;6.10;90.60
68235;DHT22;55052;52.056;5.296;2023-11-25T03:05:37;6.10;90.60
68235;DHT22;55052;52.056;5.296;2023-11-25T03:08:06;6.10;90.60
68235;DHT22;55052;52.056;5.296;2023-11-25T03:10:32;6.10;90.50
68235;DHT22;55052;52.056;5.296;2023-11-25T03:13:00;6.10;90.50
68235;DHT22;55052;52.056;5.296;2023-11-25T03:15:27;6.10;90.50
68235;DHT22;55052;52.056;5.296;2023-11-25T03:17:53;6.10;90.50
68235;DHT22;55052;52.056;5.296;2023-11-25T03:20:20;6.10;90.50
68235;DHT22;55052;52.056;5.296;2023-11-25T03:22:47;6.10;90.50
68235;DHT22;55052;52.056;5.296;2023-11-25T03:25:15;6.10;90.50
68235;DHT22;55052;52.056;5.296;2023-11-25T03:27:41;6.10;90.50
68235;DHT22;55052;52.056;5.296;2023-11-25T03:30:09;6.10;90.50
68235;DHT22;55052;52.056;5.296;2023-11-25T03:32:38;6.00;90.50
68235;DHT22;55052;52.056;5.296;2023-11-25T03:35:05;6.10;90.50
68235;DHT22;55052;52.056;5.296;2023-11-25T03:37:33;6.00;90.50
68235;DHT22;55052;52.056;5.296;2023-11-25T03:39:59;6.00;90.40
68235;DHT22;55052;52.056;5.296;2023-11-25T03:42:26;6.00;90.40
68235;DHT22;55052;52.056;5.296;2023-11-25T03:44:53;6.00;90.40
68235;DHT22;55052;52.056;5.296;2023-11-25T03:47:20;6.00;90.40
68235;DHT22;55052;52.056;5.296;2023-11-25T03:49:47;5.90;90.40
68235;DHT22;55052;52.056;5.296;2023-11-25T03:52:14;5.90;90.40
68235;DHT22;55052;52.056;5.296;2023-11-25T03:54:42;5.90;90.40
68235;DHT22;55052;52.056;5.296;2023-11-25T03:57:09;5.90;90.40
68235;DHT22;55052;52.056;5.296;2023-11-25T03:59:36;5.80;90.40
68235;DHT22;55052;52.056;5.296;2023-11-25T04:02:03;5.80;90.50
68235;DHT22;55052;52.056;5.296;2023-11-25T04:04:30;5.80;90.60
68235;DHT22;55052;52.056;5.296;2023-11-25T04:06:57;5.80;90.70
68235;DHT22;55052;52.056;5.296;2023-11-25T04:09:24;5.80;90.70
68235;DHT22;55052;52.056;5.296;2023-11-25T04:11:51;5.90;90.80
68235;DHT22;55052;52.056;5.296;2023-11-25T04:14:19;5.90;90.90
68235;DHT22;55052;52.056;5.296;2023-11-25T04:16:45;5.90;90.90
68235;DHT22;55052;52.056;5.296;2023-11-25T04:19:12;6.00;91.00
68235;DHT22;55052;52.056;5.296;2023-11-25T04:21:40;6.00;91.00
68235;DHT22;55052;52.056;5.296;2023-11-25T04:24:12;6.10;91.40
68235;DHT22;55052;52.056;5.296;2023-11-25T04:26:39;6.10;91.10
68235;DHT22;55052;52.056;5.296;2023-11-25T04:29:07;6.20;91.20
68235;DHT22;55052;52.056;5.296;2023-11-25T04:31:35;6.20;91.20
68235;DHT22;55052;52.056;5.296;2023-11-25T04:34:04;6.30;91.30
68235;DHT22;55052;52.056;5.296;2023-11-25T04:36:32;6.30;91.40
68235;DHT22;55052;52.056;5.296;2023-11-25T04:39:01;6.30;91.40
68235;DHT22;55052;52.056;5.296;2023-11-25T04:41:27;6.40;91.40
68235;DHT22;55052;52.056;5.296;2023-11-25T04:43:54;6.40;91.50
68235;DHT22;55052;52.056;5.296;2023-11-25T04:46:21;6.40;91.50
68235;DHT22;55052;52.056;5.296;2023-11-25T04:48:48;6.40;91.50
68235;DHT22;55052;52.056;5.296;2023-11-25T04:51:22;6.40;91.50
68235;DHT22;55052;52.056;5.296;2023-11-25T04:53:49;6.40;91.50
68235;DHT22;55052;52.056;5.296;2023-11-25T04:56:15;6.40;91.60
68235;DHT22;55052;52.056;5.296;2023-11-25T04:58:43;6.40;91.60
68235;DHT22;55052;52.056;5.296;2023-11-25T05:01:10;6.40;91.70
68235;DHT22;55052;52.056;5.296;2023-11-25T05:03:36;6.40;91.80
68235;DHT22;55052;52.056;5.296;2023-11-25T05:06:08;6.40;91.80
68235;DHT22;55052;52.056;5.296;2023-11-25T05:08:36;6.40;91.90
68235;DHT22;55052;52.056;5.296;2023-11-25T05:11:03;6.40;92.00
68235;DHT22;55052;52.056;5.296;2023-11-25T05:13:29;6.40;92.10
68235;DHT22;55052;52.056;5.296;2023-11-25T05:15:56;6.40;92.20
68235;DHT22;55052;52.056;5.296;2023-11-25T05:18:24;6.40;92.20
68235;DHT22;55052;52.056;5.296;2023-11-25T05:20:51;6.40;92.30
68235;DHT22;55052;52.056;5.296;2023-11-25T05:23:17;6.40;92.40
68235;DHT22;55052;52.056;5.296;2023-11-25T05:25:44;6.40;92.40
68235;DHT22;55052;52.056;5.296;2023-11-25T05:28:11;6.40;92.40
68235;DHT22;55052;52.056;5.296;2023-11-25T05:30:38;6.30;92.40
68235;DHT22;55052;52.056;5.296;2023-11-25T05:33:05;6.30;92.40
68235;DHT22;55052;52.056;5.296;2023-11-25T05:35:31;6.30;92.50
68235;DHT22;55052;52.056;5.296;2023-11-25T05:37:58;6.30;92.60
68235;DHT22;55052;52.056;5.296;2023-11-25T05:40:25;6.30;92.60
68235;DHT22;55052;52.056;5.296;2023-11-25T05:42:56;6.30;92.70
68235;DHT22;55052;52.056;5.296;2023-11-25T05:45:25;6.30;92.70
68235;DHT22;55052;52.056;5.296;2023-11-25T05:47:54;6.30;92.70
68235;DHT22;55052;52.056;5.296;2023-11-25T05:50:21;6.30;92.70
68235;DHT22;55052;52.056;5.296;2023-11-25T05:52:49;6.30;92.80
68235;DHT22;55052;52.056;5.296;2023-11-25T05:55:17;6.30;92.80
68235;DHT22;55052;52.056;5.296;2023-11-25T05:57:46;6.20;92.80
68235;DHT22;55052;52.056;5.296;2023-11-25T06:00:13;6.20;92.90
68235;DHT22;55052;52.056;5.296;2023-11-25T06:02:41;6.20;92.90
68235;DHT22;55052;52.056;5.296;2023-11-25T06:05:08;6.20;92.90
68235;DHT22;55052;52.056;5.296;2023-11-25T06:07:38;6.20;92.90
68235;DHT22;55052;52.056;5.296;2023-11-25T06:10:06;6.20;92.90
68235;DHT22;55052;52.056;5.296;2023-11-25T06:12:33;6.20;93.30
68235;DHT22;55052;52.056;5.296;2023-11-25T06:15:00;6.10;92.90
68235;DHT22;55052;52.056;5.296;2023-11-25T06:17:27;6.10;92.90
68235;DHT22;55052;52.056;5.296;2023-11-25T06:19:54;6.10;92.90
68235;DHT22;55052;52.056;5.296;2023-11-25T06:22:21;6.10;92.90
68235;DHT22;55052;52.056;5.296;2023-11-25T06:24:48;6.10;92.90
68235;DHT22;55052;52.056;5.296;2023-11-25T06:27:15;6.00;92.90
68235;DHT22;55052;52.056;5.296;2023-11-25T06:29:42;6.00;92.90
68235;DHT22;55052;52.056;5.296;2023-11-25T06:32:09;6.10;93.40
68235;DHT22;55052;52.056;5.296;2023-11-25T06:34:36;6.00;92.90
68235;DHT22;55052;52.056;5.296;2023-11-25T06:37:03;6.00;92.90
68235;DHT22;55052;52.056;5.296;2023-11-25T06:39:30;6.00;92.90
68235;DHT22;55052;52.056;5.296;2023-11-25T06:41:59;6.00;92.90
68235;DHT22;55052;52.056;5.296;2023-11-25T06:44:27;6.00;93.00
68235;DHT22;55052;52.056;5.296;2023-11-25T06:46:54;6.00;93.00
68235;DHT22;55052;52.056;5.296;2023-11-25T06:49:21;6.00;93.00
68235;DHT22;55052;52.056;5.296;2023-11-25T06:51:47;6.00;93.30
68235;DHT22;55052;52.056;5.296;2023-11-25T06:54:15;6.00;92.90
68235;DHT22;55052;52.056;5.296;2023-11-25T06:56:42;6.00;93.00
68235;DHT22;55052;52.056;5.296;2023-11-25T06:59:09;6.00;93.00
68235;DHT22;55052;52.056;5.296;2023-11-25T07:01:36;6.00;93.00
68235;DHT22;55052;52.056;5.296;2023-11-25T07:04:04;6.00;93.00
68235;DHT22;55052;52.056;5.296;2023-11-25T07:06:31;6.00;93.00
68235;DHT22;55052;52.056;5.296;2023-11-25T07:08:57;6.10;93.00
68235;DHT22;55052;52.056;5.296;2023-11-25T07:11:27;6.00;93.00
68235;DHT22;55052;52.056;5.296;2023-11-25T07:13:57;6.00;93.10
68235;DHT22;55052;52.056;5.296;2023-11-25T07:16:24;6.10;93.20
68235;DHT22;55052;52.056;5.296;2023-11-25T07:18:51;6.00;93.20
68235;DHT22;55052;52.056;5.296;2023-11-25T07:21:19;6.10;93.40
68235;DHT22;55052;52.056;5.296;2023-11-25T07:23:46;6.10;93.30
68235;DHT22;55052;52.056;5.296;2023-11-25T07:26:15;6.10;93.40
68235;DHT22;55052;52.056;5.296;2023-11-25T07:28:44;6.10;93.50
68235;DHT22;55052;52.056;5.296;2023-11-25T07:31:11;6.10;93.50
68235;DHT22;55052;52.056;5.296;2023-11-25T07:33:38;6.10;93.60
68235;DHT22;55052;52.056;5.296;2023-11-25T07:36:05;6.10;93.60
68235;DHT22;55052;52.056;5.296;2023-11-25T07:38:33;6.10;93.60
68235;DHT22;55052;52.056;5.296;2023-11-25T07:40:59;6.10;93.60
68235;DHT22;55052;52.056;5.296;2023-11-25T07:43:26;6.10;93.60
68235;DHT22;55052;52.056;5.296;2023-11-25T07:45:53;6.10;93.70
68235;DHT22;55052;52.056;5.296;2023-11-25T07:48:20;6.20;93.70
68235;DHT22;55052;52.056;5.296;2023-11-25T07:50:47;6.20;93.70
68235;DHT22;55052;52.056;5.296;2023-11-25T07:53:17;6.20;94.10
68235;DHT22;55052;52.056;5.296;2023-11-25T07:55:43;6.20;93.80
68235;DHT22;55052;52.056;5.296;2023-11-25T07:58:10;6.20;93.80
68235;DHT22;55052;52.056;5.296;2023-11-25T08:00:37;6.20;93.80
68235;DHT22;55052;52.056;5.296;2023-11-25T08:03:04;6.20;93.90
68235;DHT22;55052;52.056;5.296;2023-11-25T08:05:31;6.20;94.20
68235;DHT22;55052;52.056;5.296;2023-11-25T08:07:58;6.20;94.00
68235;DHT22;55052;52.056;5.296;2023-11-25T08:10:25;6.30;94.00
68235;DHT22;55052;52.056;5.296;2023-11-25T08:12:57;6.30;94.10
68235;DHT22;55052;52.056;5.296;2023-11-25T08:15:26;6.30;94.10
68235;DHT22;55052;52.056;5.296;2023-11-25T08:17:57;6.30;94.10
68235;DHT22;55052;52.056;5.296;2023-11-25T08:20:25;6.30;94.50
68235;DHT22;55052;52.056;5.296;2023-11-25T08:22:52;6.30;94.10
68235;DHT22;55052;52.056;5.296;2023-11-25T08:25:20;6.30;94.10
68235;DHT22;55052;52.056;5.296;2023-11-25T08:27:49;6.20;94.00
68235;DHT22;55052;52.056;5.296;2023-11-25T08:30:17;6.30;94.10
68235;DHT22;55052;52.056;5.296;2023-11-25T08:32:44;6.30;94.00
68235;DHT22;55052;52.056;5.296;2023-11-25T08:35:11;6.30;94.00
68235;DHT22;55052;52.056;5.296;2023-11-25T08:37:39;6.30;94.00
68235;DHT22;55052;52.056;5.296;2023-11-25T08:40:10;6.30;94.00
68235;DHT22;55052;52.056;5.296;2023-11-25T08:42:44;6.30;94.00
68235;DHT22;55052;52.056;5.296;2023-11-25T08:45:12;6.30;94.00
68235;DHT22;55052;52.056;5.296;2023-11-25T08:47:39;6.30;94.10
68235;DHT22;55052;52.056;5.296;2023-11-25T08:50:10;6.40;94.10
68235;DHT22;55052;52.056;5.296;2023-11-25T08:52:42;6.40;94.20
68235;DHT22;55052;52.056;5.296;2023-11-25T08:55:09;6.40;94.20
68235;DHT22;55052;52.056;5.296;2023-11-25T08:57:36;6.50;94.30
68235;DHT22;55052;52.056;5.296;2023-11-25T09:00:05;6.50;94.30
68235;DHT22;55052;52.056;5.296;2023-11-25T09:02:42;6.50;94.30
68235;DHT22;55052;52.056;5.296;2023-11-25T09:05:10;6.60;94.30
68235;DHT22;55052;52.056;5.296;2023-11-25T09:07:38;6.60;94.30
68235;DHT22;55052;52.056;5.296;2023-11-25T09:10:05;6.60;94.30
68235;DHT22;55052;52.056;5.296;2023-11-25T09:12:34;6.70;94.30
68235;DHT22;55052;52.056;5.296;2023-11-25T09:15:01;6.70;94.30
68235;DHT22;55052;52.056;5.296;2023-11-25T09:17:31;6.80;94.40
68235;DHT22;55052;52.056;5.296;2023-11-25T09:19:59;6.80;94.40
68235;DHT22;55052;52.056;5.296;2023-11-25T09:22:26;6.90;94.40
68235;DHT22;55052;52.056;5.296;2023-11-25T09:24:53;6.90;94.40
68235;DHT22;55052;52.056;5.296;2023-11-25T09:27:20;7.00;94.40
68235;DHT22;55052;52.056;5.296;2023-11-25T09:29:47;7.00;94.40
68235;DHT22;55052;52.056;5.296;2023-11-25T09:32:14;7.00;94.30
68235;DHT22;55052;52.056;5.296;2023-11-25T09:34:40;7.10;94.50
68235;DHT22;55052;52.056;5.296;2023-11-25T09:37:07;7.10;94.30
68235;DHT22;55052;52.056;5.296;2023-11-25T09:39:34;7.20;94.30
68235;DHT22;55052;52.056;5.296;2023-11-25T09:42:01;7.20;94.30
68235;DHT22;55052;52.056;5.296;2023-11-25T09:44:29;7.30;94.30
68235;DHT22;55052;52.056;5.296;2023-11-25T09:46:56;7.30;94.30
68235;DHT22;55052;52.056;5.296;2023-11-25T09:49:24;7.40;94.30
68235;DHT22;55052;52.056;5.296;2023-11-25T09:51:51;7.40;94.30
68235;DHT22;55052;52.056;5.296;2023-11-25T09:54:21;7.40;94.20
68235;DHT22;55052;52.056;5.296;2023-11-25T09:56:49;7.50;94.20
68235;DHT22;55052;52.056;5.296;2023-11-25T09:59:17;7.50;94.20
68235;DHT22;55052;52.056;5.296;2023-11-25T10:01:45;7.50;94.20
68235;DHT22;55052;52.056;5.296;2023-11-25T10:04:13;7.50;94.20
68235;DHT22;55052;52.056;5.296;2023-11-25T10:06:43;7.60;94.20
68235;DHT22;55052;52.056;5.296;2023-11-25T10:09:12;7.60;94.30
68235;DHT22;55052;52.056;5.296;2023-11-25T10:11:39;7.70;94.30
68235;DHT22;55052;52.056;5.296;2023-11-25T10:14:10;7.70;94.30
68235;DHT22;55052;52.056;5.296;2023-11-25T10:16:41;7.80;94.20
68235;DHT22;55052;52.056;5.296;2023-11-25T10:19:21;7.80;94.20
68235;DHT22;55052;52.056;5.296;2023-11-25T10:21:50;7.90;94.20
68235;DHT22;55052;52.056;5.296;2023-11-25T10:24:17;7.90;94.20
68235;DHT22;55052;52.056;5.296;2023-11-25T10:26:48;8.00;94.20
68235;DHT22;55052;52.056;5.296;2023-11-25T10:29:19;8.10;94.20
68235;DHT22;55052;52.056;5.296;2023-11-25T10:31:54;8.10;94.20
68235;DHT22;55052;52.056;5.296;2023-11-25T10:34:23;8.20;94.10
68235;DHT22;55052;52.056;5.296;2023-11-25T10:36:51;8.20;94.10
68235;DHT22;55052;52.056;5.296;2023-11-25T10:39:18;8.20;94.00
68235;DHT22;55052;52.056;5.296;2023-11-25T10:41:50;8.30;93.80
68235;DHT22;55052;52.056;5.296;2023-11-25T10:44:19;8.30;93.80
68235;DHT22;55052;52.056;5.296;2023-11-25T10:46:46;8.30;93.70
68235;DHT22;55052;52.056;5.296;2023-11-25T10:49:16;8.40;93.70
68235;DHT22;55052;52.056;5.296;2023-11-25T10:51:45;8.40;93.60
68235;DHT22;55052;52.056;5.296;2023-11-25T10:54:12;8.40;93.50
68235;DHT22;55052;52.056;5.296;2023-11-25T10:56:42;8.50;93.50
68235;DHT22;55052;52.056;5.296;2023-11-25T10:59:11;8.50;93.40
68235;DHT22;55052;52.056;5.296;2023-11-25T11:01:42;8.60;93.20
68235;DHT22;55052;52.056;5.296;2023-11-25T11:04:25;8.60;93.10
68235;DHT22;55052;52.056;5.296;2023-11-25T11:06:53;8.60;93.00
68235;DHT22;55052;52.056;5.296;2023-11-25T11:09:25;8.60;93.00
68235;DHT22;55052;52.056;5.296;2023-11-25T11:11:57;8.60;93.00
68235;DHT22;55052;52.056;5.296;2023-11-25T11:14:30;8.60;92.90
68235;DHT22;55052;52.056;5.296;2023-11-25T11:17:28;8.60;93.00
68235;DHT22;55052;52.056;5.296;2023-11-25T11:19:58;8.60;92.90
68235;DHT22;55052;52.056;5.296;2023-11-25T11:22:25;8.60;92.90
68235;DHT22;55052;52.056;5.296;2023-11-25T11:25:00;8.60;93.30
68235;DHT22;55052;52.056;5.296;2023-11-25T11:33:14;8.50;92.60
68235;DHT22;55052;52.056;5.296;2023-11-25T11:35:41;8.50;92.70
68235;DHT22;55052;52.056;5.296;2023-11-25T11:38:24;8.50;93.10
68235;DHT22;55052;52.056;5.296;2023-11-25T11:40:58;8.50;92.80
68235;DHT22;55052;52.056;5.296;2023-11-25T11:43:26;8.60;92.80
68235;DHT22;55052;52.056;5.296;2023-11-25T11:45:55;8.60;92.70
68235;DHT22;55052;52.056;5.296;2023-11-25T11:48:25;8.60;92.60
68235;DHT22;55052;52.056;5.296;2023-11-25T11:50:52;8.60;92.50
68235;DHT22;55052;52.056;5.296;2023-11-25T11:53:22;8.70;92.50
68235;DHT22;55052;52.056;5.296;2023-11-25T11:55:54;8.70;92.80
68235;DHT22;55052;52.056;5.296;2023-11-25T11:58:23;8.70;92.30
68235;DHT22;55052;52.056;5.296;2023-11-25T12:03:29;8.70;92.00
68235;DHT22;55052;52.056;5.296;2023-11-25T12:05:57;8.70;92.00
68235;DHT22;55052;52.056;5.296;2023-11-25T12:08:24;8.70;91.90
68235;DHT22;55052;52.056;5.296;2023-11-25T12:10:52;8.80;91.90
68235;DHT22;55052;52.056;5.296;2023-11-25T12:13:25;8.80;91.80
68235;DHT22;55052;52.056;5.296;2023-11-25T12:15:56;8.80;91.80
68235;DHT22;55052;52.056;5.296;2023-11-25T12:18:27;8.80;91.70
68235;DHT22;55052;52.056;5.296;2023-11-25T12:20:55;8.90;91.60
68235;DHT22;55052;52.056;5.296;2023-11-25T12:23:24;8.90;91.40
68235;DHT22;55052;52.056;5.296;2023-11-25T12:26:10;8.90;91.40
68235;DHT22;55052;52.056;5.296;2023-11-25T12:28:41;9.00;91.30
68235;DHT22;55052;52.056;5.296;2023-11-25T12:31:11;9.10;91.30
68235;DHT22;55052;52.056;5.296;2023-11-25T12:33:38;9.10;91.10
68235;DHT22;55052;52.056;5.296;2023-11-25T12:36:06;9.20;91.10
68235;DHT22;55052;52.056;5.296;2023-11-25T12:38:34;9.20;90.90
68235;DHT22;55052;52.056;5.296;2023-11-25T12:41:05;9.20;90.90
68235;DHT22;55052;52.056;5.296;2023-11-25T12:43:59;9.20;90.80
68235;DHT22;55052;52.056;5.296;2023-11-25T12:46:24;9.30;90.90
68235;DHT22;55052;52.056;5.296;2023-11-25T12:48:51;9.30;90.70
68235;DHT22;55052;52.056;5.296;2023-11-25T12:51:18;9.30;90.60
68235;DHT22;55052;52.056;5.296;2023-11-25T12:53:52;9.30;90.30
68235;DHT22;55052;52.056;5.296;2023-11-25T12:56:22;9.30;90.20
68235;DHT22;55052;52.056;5.296;2023-11-25T12:58:49;9.30;90.10
68235;DHT22;55052;52.056;5.296;2023-11-25T13:01:16;9.20;90.10
68235;DHT22;55052;52.056;5.296;2023-11-25T13:03:49;9.20;90.20
68235;DHT22;55052;52.056;5.296;2023-11-25T13:06:16;9.20;90.10
68235;DHT22;55052;52.056;5.296;2023-11-25T13:08:45;9.20;90.10
68235;DHT22;55052;52.056;5.296;2023-11-25T13:11:12;9.20;90.10
68235;DHT22;55052;52.056;5.296;2023-11-25T13:13:44;9.20;90.20
68235;DHT22;55052;52.056;5.296;2023-11-25T13:16:11;9.20;90.20
68235;DHT22;55052;52.056;5.296;2023-11-25T13:18:47;9.20;90.10
68235;DHT22;55052;52.056;5.296;2023-11-25T13:21:14;9.30;90.20
68235;DHT22;55052;52.056;5.296;2023-11-25T13:23:41;9.30;90.20
68235;DHT22;55052;52.056;5.296;2023-11-25T13:26:08;9.30;90.10
68235;DHT22;55052;52.056;5.296;2023-11-25T13:28:36;9.30;90.00
68235;DHT22;55052;52.056;5.296;2023-11-25T13:31:03;9.30;90.00
68235;DHT22;55052;52.056;5.296;2023-11-25T13:33:30;9.40;90.00
68235;DHT22;55052;52.056;5.296;2023-11-25T13:35:57;9.40;90.00
68235;DHT22;55052;52.056;5.296;2023-11-25T13:38:24;9.40;89.70
68235;DHT22;55052;52.056;5.296;2023-11-25T13:40:51;9.30;89.50
68235;DHT22;55052;52.056;5.296;2023-11-25T13:43:18;9.30;89.30
68235;DHT22;55052;52.056;5.296;2023-11-25T13:45:47;9.30;90.00
68235;DHT22;55052;52.056;5.296;2023-11-25T13:48:14;9.40;89.30
68235;DHT22;55052;52.056;5.296;2023-11-25T13:50:43;9.40;89.50
68235;DHT22;55052;52.056;5.296;2023-11-25T13:53:10;9.40;89.20
68235;DHT22;55052;52.056;5.296;2023-11-25T13:55:40;9.40;89.00
68235;DHT22;55052;52.056;5.296;2023-11-25T13:58:15;9.40;88.70
68235;DHT22;55052;52.056;5.296;2023-11-25T14:00:45;9.40;88.80
68235;DHT22;55052;52.056;5.296;2023-11-25T14:03:12;9.30;88.80
68235;DHT22;55052;52.056;5.296;2023-11-25T14:05:42;9.30;89.10
68235;DHT22;55052;52.056;5.296;2023-11-25T14:08:10;9.20;89.20
68235;DHT22;55052;52.056;5.296;2023-11-25T14:10:39;9.10;89.20
68235;DHT22;55052;52.056;5.296;2023-11-25T14:13:08;9.10;89.30
68235;DHT22;55052;52.056;5.296;2023-11-25T14:15:35;9.00;89.40
68235;DHT22;55052;52.056;5.296;2023-11-25T14:18:02;9.00;89.50
68235;DHT22;55052;52.056;5.296;2023-11-25T14:20:31;9.00;89.60
68235;DHT22;55052;52.056;5.296;2023-11-25T14:22:57;8.90;89.50
68235;DHT22;55052;52.056;5.296;2023-11-25T14:25:25;8.90;89.70
68235;DHT22;55052;52.056;5.296;2023-11-25T14:27:52;8.90;89.90
68235;DHT22;55052;52.056;5.296;2023-11-25T14:30:19;8.90;89.80
68235;DHT22;55052;52.056;5.296;2023-11-25T14:32:49;8.90;89.80
68235;DHT22;55052;52.056;5.296;2023-11-25T14:35:17;8.80;89.80
68235;DHT22;55052;52.056;5.296;2023-11-25T14:37:44;8.80;89.80
68235;DHT22;55052;52.056;5.296;2023-11-25T14:40:13;8.80;89.80
68235;DHT22;55052;52.056;5.296;2023-11-25T14:42:44;8.80;89.80
68235;DHT22;55052;52.056;5.296;2023-11-25T14:45:12;8.80;89.90
68235;DHT22;55052;52.056;5.296;2023-11-25T14:47:39;8.80;90.00
68235;DHT22;55052;52.056;5.296;2023-11-25T14:50:06;8.70;90.00
68235;DHT22;55052;52.056;5.296;2023-11-25T14:52:40;8.70;90.00
68235;DHT22;55052;52.056;5.296;2023-11-25T14:55:07;8.70;90.10
68235;DHT22;55052;52.056;5.296;2023-11-25T14:57:35;8.70;90.20
68235;DHT22;55052;52.056;5.296;2023-11-25T15:00:06;8.60;90.30
68235;DHT22;55052;52.056;5.296;2023-11-25T15:02:35;8.60;90.30
68235;DHT22;55052;52.056;5.296;2023-11-25T15:05:03;8.60;90.30
68235;DHT22;55052;52.056;5.296;2023-11-25T15:07:30;8.60;90.40
68235;DHT22;55052;52.056;5.296;2023-11-25T15:09:57;8.50;90.40
68235;DHT22;55052;52.056;5.296;2023-11-25T15:12:24;8.50;90.40
68235;DHT22;55052;52.056;5.296;2023-11-25T15:14:51;8.50;90.50
68235;DHT22;55052;52.056;5.296;2023-11-25T15:17:22;8.40;90.50
68235;DHT22;55052;52.056;5.296;2023-11-25T15:19:49;8.40;90.60
68235;DHT22;55052;52.056;5.296;2023-11-25T15:22:15;8.30;90.70
68235;DHT22;55052;52.056;5.296;2023-11-25T15:24:42;8.30;91.20
68235;DHT22;55052;52.056;5.296;2023-11-25T15:27:09;8.30;90.90
68235;DHT22;55052;52.056;5.296;2023-11-25T15:29:38;8.30;91.00
68235;DHT22;55052;52.056;5.296;2023-11-25T15:32:05;8.20;91.00
68235;DHT22;55052;52.056;5.296;2023-11-25T15:34:32;8.20;91.00
68235;DHT22;55052;52.056;5.296;2023-11-25T15:36:59;8.20;91.10
68235;DHT22;55052;52.056;5.296;2023-11-25T15:39:26;8.20;91.10
68235;DHT22;55052;52.056;5.296;2023-11-25T15:41:54;8.20;91.20
68235;DHT22;55052;52.056;5.296;2023-11-25T15:44:21;8.20;91.20
68235;DHT22;55052;52.056;5.296;2023-11-25T15:46:48;8.20;91.20
68235;DHT22;55052;52.056;5.296;2023-11-25T15:49:15;8.20;91.30
68235;DHT22;55052;52.056;5.296;2023-11-25T15:51:42;8.20;91.30
68235;DHT22;55052;52.056;5.296;2023-11-25T15:54:10;8.10;91.30
68235;DHT22;55052;52.056;5.296;2023-11-25T15:56:37;8.20;91.40
68235;DHT22;55052;52.056;5.296;2023-11-25T15:59:05;8.20;91.40